Terminal Aerodrome Forecast
Issued by NWS Cleveland, OH

Home | Current Version | Previous Version | Text Only | Print | Product List | Glossary On
Versions: 1 2 3 4 5 6 7 8 9 10 11 12 13 14 15 16 17 18 19 20 21 22 23
000
FTUS41 KCLE 280500
TAFYNG
TAF
KYNG 280523Z 2806/2906 27007KT 5SM -SHSN SCT006 OVC015
      TEMPO 2806/2810 1SM -SHSN OVC006
     FM281000 27006KT P6SM -SHSN SCT015 OVC035
      TEMPO 2810/2814 5SM -SHSN OVC015
     FM281400 27008KT P6SM SCT035 OVC060
     FM282000 22008KT P6SM BKN045 OVC120
     FM290200 18010KT P6SM VCSH OVC045=

USA.gov is the U.S. government's official web portal to all federal, state and local government web resources and services.